createdAt,value
2023-04-01T00:00:34.172Z,47.28
2023-04-01T00:03:39.662Z,51.03
2023-04-01T00:06:45.333Z,45.67
2023-04-01T00:09:50.939Z,41.45
2023-04-01T00:12:57.010Z,45.63
2023-04-01T00:16:03.572Z,48.42
2023-04-01T00:19:09.594Z,41.38
2023-04-01T00:22:15.173Z,43.75
2023-04-01T00:25:21.028Z,44.55
2023-04-01T00:28:26.400Z,42.67
2023-04-01T00:31:31.867Z,45.22
2023-04-01T00:34:38.001Z,39.80
2023-04-01T00:37:43.440Z,41.40
2023-04-01T00:40:49.277Z,35.47
2023-04-01T00:44:15.083Z,39.78
2023-04-01T00:47:20.994Z,34.00
2023-04-01T00:50:30.963Z,41.63
2023-04-01T00:53:41.947Z,41.85
2023-04-01T00:56:57.277Z,46.30
2023-04-01T01:00:02.625Z,37.15
2023-04-01T01:03:08.733Z,43.78
2023-04-01T01:06:31.826Z,44.25
2023-04-01T01:09:43.076Z,39.83
2023-04-01T01:13:21.949Z,38.45
2023-04-01T01:16:32.464Z,39.67
2023-04-01T01:20:25.839Z,38.00
2023-04-01T01:23:44.965Z,37.05
2023-04-01T01:26:54.999Z,41.67
2023-04-01T01:30:03.168Z,49.22
2023-04-01T01:33:27.208Z,45.47
2023-04-01T01:36:38.347Z,44.22
2023-04-01T01:39:58.360Z,40.05
2023-04-01T01:43:11.357Z,46.03
2023-04-01T01:46:21.966Z,48.53
2023-04-01T01:49:31.850Z,38.97
2023-04-01T01:52:37.171Z,38.15
2023-04-01T01:55:46.821Z,38.50
2023-04-01T01:58:59.595Z,39.95
2023-04-01T02:02:09.257Z,43.45
2023-04-01T02:05:25.943Z,44.75
2023-04-01T02:08:43.285Z,38.70
2023-04-01T02:12:02.018Z,40.53
2023-04-01T02:15:16.964Z,38.85
2023-04-01T02:18:22.396Z,37.65
2023-04-01T02:21:32.767Z,38.10
2023-04-01T02:24:40.196Z,40.83
2023-04-01T02:27:46.798Z,32.20
2023-04-01T02:30:52.976Z,36.53
2023-04-01T02:33:59.093Z,40.55
2023-04-01T02:37:04.835Z,48.10
2023-04-01T02:40:16.289Z,35.30
2023-04-01T02:43:22.506Z,43.10
2023-04-01T02:46:27.917Z,37.08
2023-04-01T02:49:34.013Z,38.65
2023-04-01T02:52:39.519Z,43.55
2023-04-01T02:55:46.217Z,38.67
2023-04-01T02:58:52.040Z,40.28
2023-04-01T03:01:57.538Z,40.92
2023-04-01T03:05:03.112Z,41.08
2023-04-01T03:08:09.195Z,39.45
2023-04-01T03:11:15.003Z,45.40
2023-04-01T03:14:20.691Z,43.65
2023-04-01T03:17:26.473Z,42.22
2023-04-01T03:20:32.904Z,40.63
2023-04-01T03:23:38.878Z,38.90
2023-04-01T03:26:45.745Z,46.58
2023-04-01T03:29:51.690Z,49.78
2023-04-01T03:32:57.509Z,45.00
2023-04-01T03:36:04.821Z,46.58
2023-04-01T03:39:10.439Z,50.72
2023-04-01T03:42:21.033Z,43.80
2023-04-01T03:45:27.463Z,37.97
2023-04-01T03:48:33.259Z,40.90
2023-04-01T03:51:44.050Z,43.53
2023-04-01T03:54:50.389Z,38.67
2023-04-01T03:57:56.187Z,37.72
2023-04-01T04:01:02.435Z,38.50
2023-04-01T04:04:14.377Z,34.47
2023-04-01T04:07:21.035Z,35.15
2023-04-01T04:10:42.584Z,50.55
2023-04-01T04:13:49.516Z,35.45
2023-04-01T04:16:54.887Z,34.63
2023-04-01T04:20:00.819Z,35.03
2023-04-01T04:23:06.309Z,50.22
2023-04-01T04:26:15.184Z,36.97
2023-04-01T04:29:24.028Z,39.53
2023-04-01T04:32:31.291Z,31.63
2023-04-01T04:35:36.526Z,32.97
2023-04-01T04:38:42.196Z,37.03
2023-04-01T04:41:47.856Z,33.38
2023-04-01T04:44:53.719Z,33.10
2023-04-01T04:48:00.181Z,34.88
2023-04-01T04:51:06.949Z,34.25
2023-04-01T04:54:13.809Z,36.42
2023-04-01T04:57:34.773Z,37.45
2023-04-01T05:00:41.047Z,36.92
2023-04-01T05:03:50.169Z,34.20
2023-04-01T05:06:55.713Z,34.63
2023-04-01T05:10:02.940Z,33.13
2023-04-01T05:13:08.731Z,33.08
2023-04-01T05:16:17.495Z,36.65
2023-04-01T05:19:22.885Z,32.33
2023-04-01T05:22:28.476Z,35.63
2023-04-01T05:25:34.011Z,35.00
2023-04-01T05:28:39.959Z,33.60
2023-04-01T05:31:45.449Z,30.67
2023-04-01T05:34:55.309Z,33.75
2023-04-01T05:38:00.897Z,29.65
2023-04-01T05:41:06.910Z,34.10
2023-04-01T05:44:16.578Z,41.17
2023-04-01T05:47:22.062Z,33.08
2023-04-01T05:50:27.696Z,34.05
2023-04-01T05:53:33.257Z,34.30
2023-04-01T05:56:39.093Z,32.28
2023-04-01T05:59:44.503Z,36.88
2023-04-01T06:02:49.699Z,32.72
2023-04-01T06:05:54.861Z,28.40
2023-04-01T06:09:19.321Z,30.50
2023-04-01T06:12:43.313Z,32.97
2023-04-01T06:16:00.292Z,29.55
2023-04-01T06:19:31.358Z,21.98
2023-04-01T06:23:05.649Z,21.88
2023-04-01T06:26:23.816Z,24.63
2023-04-01T06:30:08.420Z,19.13
2023-04-01T06:33:46.197Z,23.63
2023-04-01T06:36:51.781Z,22.58
2023-04-01T06:40:18.262Z,23.27
2023-04-01T06:44:06.850Z,23.45
2023-04-01T06:47:39.234Z,22.55
2023-04-01T06:51:03.000Z,25.02
2023-04-01T06:54:48.429Z,26.40
2023-04-01T06:58:43.510Z,22.38
2023-04-01T07:01:53.595Z,23.30
2023-04-01T07:05:00.959Z,22.20
2023-04-01T07:08:13.107Z,18.83
2023-04-01T07:15:38.947Z,19.10
2023-04-01T07:19:28.093Z,20.08
2023-04-01T07:22:47.094Z,15.88
2023-04-01T07:26:22.129Z,15.57
2023-04-01T07:29:52.316Z,22.65
2023-04-01T07:33:01.968Z,11.90
2023-04-01T07:36:12.255Z,15.30
2023-04-01T07:39:36.758Z,20.05
2023-04-01T07:42:56.899Z,13.80
2023-04-01T07:46:47.220Z,9.85
2023-04-01T07:50:27.576Z,13.52
2023-04-01T07:53:44.233Z,14.23
2023-04-01T07:57:16.424Z,7.45
2023-04-01T08:00:37.729Z,10.85
2023-04-01T08:03:58.263Z,7.65
2023-04-01T08:07:15.186Z,9.70
2023-04-01T08:11:01.119Z,9.98
2023-04-01T08:14:42.451Z,6.78
2023-04-01T08:18:21.602Z,4.85
2023-04-01T08:24:48.441Z,6.25
2023-04-01T08:28:22.335Z,5.97
2023-04-01T08:31:52.814Z,6.20
2023-04-01T08:35:38.797Z,5.45
2023-04-01T08:39:11.050Z,5.95
2023-04-01T08:42:22.579Z,5.03
2023-04-01T08:46:26.107Z,5.05
2023-04-01T08:49:49.627Z,7.80
2023-04-01T08:53:30.640Z,6.03
2023-04-01T08:57:23.989Z,6.85
2023-04-01T09:04:28.343Z,7.15
2023-04-01T09:08:03.376Z,4.50
2023-04-01T09:11:48.765Z,5.15
2023-04-01T09:15:36.710Z,5.00
2023-04-01T09:19:53.621Z,6.18
2023-04-01T09:23:30.681Z,5.82
2023-04-01T09:26:45.311Z,3.67
2023-04-01T09:30:09.381Z,4.25
2023-04-01T09:33:23.810Z,6.05
2023-04-01T09:37:00.034Z,5.03
2023-04-01T09:40:14.932Z,4.30
2023-04-01T09:43:21.906Z,4.18
2023-04-01T09:47:05.718Z,6.80
2023-04-01T09:50:20.129Z,6.95
2023-04-01T09:53:59.702Z,7.63
2023-04-01T09:57:39.369Z,5.35
2023-04-01T10:01:54.972Z,13.45
2023-04-01T10:05:42.737Z,7.03
2023-04-01T10:09:17.671Z,6.90
2023-04-01T10:12:41.655Z,8.55
2023-04-01T10:16:15.910Z,6.38
2023-04-01T10:19:40.276Z,5.05
2023-04-01T10:23:05.105Z,6.90
2023-04-01T10:26:19.409Z,9.43
2023-04-01T10:29:48.256Z,7.18
2023-04-01T10:33:24.399Z,11.80
2023-04-01T10:36:44.734Z,9.32
2023-04-01T10:40:13.539Z,8.03
2023-04-01T10:43:59.159Z,9.48
2023-04-01T10:47:41.662Z,8.85
2023-04-01T10:50:57.323Z,7.13
2023-04-01T10:54:21.254Z,7.88
2023-04-01T10:58:32.942Z,10.18
2023-04-01T11:02:36.445Z,7.22
2023-04-01T11:06:18.911Z,10.60
2023-04-01T11:09:45.922Z,10.05
2023-04-01T11:13:23.024Z,10.02
2023-04-01T11:17:01.034Z,6.00
2023-04-01T11:20:24.729Z,7.13
2023-04-01T11:24:05.558Z,4.90
2023-04-01T11:27:48.594Z,8.65
2023-04-01T11:31:12.175Z,6.78
2023-04-01T11:35:02.766Z,5.88
2023-04-01T11:38:41.735Z,7.95
2023-04-01T11:42:24.083Z,6.25
2023-04-01T11:49:23.940Z,7.85
2023-04-01T11:53:14.818Z,12.68
2023-04-01T11:56:27.044Z,10.35
2023-04-01T12:00:01.772Z,5.75
2023-04-01T12:03:28.717Z,7.85
2023-04-01T12:07:12.711Z,9.20
2023-04-01T12:10:43.036Z,8.57
2023-04-01T12:14:17.778Z,5.68
2023-04-01T12:17:33.408Z,8.25
2023-04-01T12:20:46.947Z,10.27
2023-04-01T12:24:32.342Z,14.95
2023-04-01T12:28:12.864Z,5.85
2023-04-01T12:31:31.843Z,8.60
2023-04-01T12:35:05.961Z,6.93
2023-04-01T12:38:37.994Z,7.93
2023-04-01T12:42:13.884Z,7.07
2023-04-01T12:45:42.287Z,11.52
2023-04-01T12:49:22.006Z,12.40
2023-04-01T12:52:34.815Z,16.20
2023-04-01T12:55:46.021Z,6.72
2023-04-01T12:59:18.813Z,6.32
2023-04-01T13:02:30.015Z,6.72
2023-04-01T13:05:56.024Z,9.68
2023-04-01T13:09:10.434Z,5.07
2023-04-01T13:12:44.914Z,4.47
2023-04-01T13:15:57.656Z,4.97
2023-04-01T13:19:22.587Z,5.20
2023-04-01T13:23:16.891Z,3.40
2023-04-01T13:26:52.510Z,6.78
2023-04-01T13:30:30.511Z,7.72
2023-04-01T13:34:08.153Z,8.93
2023-04-01T13:37:36.004Z,6.30
2023-04-01T13:41:04.216Z,4.68
2023-04-01T13:44:18.183Z,3.17
2023-04-01T13:47:45.657Z,2.20
2023-04-01T13:51:09.788Z,4.20
2023-04-01T13:54:48.483Z,6.15
2023-04-01T13:58:11.920Z,3.10
2023-04-01T14:01:42.300Z,3.17
2023-04-01T14:05:06.281Z,3.00
2023-04-01T14:08:44.797Z,7.13
2023-04-01T14:12:07.344Z,2.30
2023-04-01T14:15:40.929Z,1.98
2023-04-01T14:18:55.249Z,4.38
2023-04-01T14:22:54.857Z,4.45
2023-04-01T14:26:28.657Z,2.80
2023-04-01T14:29:39.923Z,4.60
2023-04-01T14:32:57.563Z,2.22
2023-04-01T14:36:19.494Z,6.07
2023-04-01T14:39:34.421Z,5.15
2023-04-01T14:42:57.584Z,3.63
2023-04-01T14:46:27.220Z,3.00
2023-04-01T14:49:48.473Z,1.00
2023-04-01T14:52:56.406Z,2.03
2023-04-01T14:56:06.679Z,4.63
2023-04-01T14:59:18.755Z,3.10
2023-04-01T15:03:02.644Z,6.85
2023-04-01T15:06:39.549Z,2.28
2023-04-01T15:10:21.118Z,9.10
2023-04-01T15:16:56.973Z,1.77
2023-04-01T15:20:26.082Z,1.30
2023-04-01T15:24:06.019Z,3.25
2023-04-01T15:27:23.091Z,2.25
2023-04-01T15:30:48.325Z,2.55
2023-04-01T15:34:14.820Z,3.22
2023-04-01T15:37:34.995Z,2.55
2023-04-01T15:40:53.020Z,6.03
2023-04-01T15:43:58.247Z,1.35
2023-04-01T15:47:28.816Z,0.98
2023-04-01T15:51:00.672Z,2.38
2023-04-01T15:54:43.095Z,1.63
2023-04-01T15:58:05.146Z,2.92
2023-04-01T16:01:19.434Z,1.95
2023-04-01T16:04:39.660Z,2.78
2023-04-01T16:08:03.863Z,1.33
2023-04-01T16:11:18.034Z,6.13
2023-04-01T16:14:51.066Z,3.05
2023-04-01T16:17:56.371Z,6.07
2023-04-01T16:21:13.639Z,5.00
2023-04-01T16:24:42.459Z,6.13
2023-04-01T16:28:12.116Z,5.35
2023-04-01T16:31:39.647Z,9.52
2023-04-01T16:34:50.567Z,6.95
2023-04-01T16:38:07.209Z,5.25
2023-04-01T16:41:38.438Z,10.85
2023-04-01T16:45:02.248Z,9.35
2023-04-01T16:48:17.323Z,5.10
2023-04-01T16:51:24.957Z,5.70
2023-04-01T16:54:49.108Z,5.80
2023-04-01T16:57:59.900Z,4.40
2023-04-01T17:01:21.740Z,4.25
2023-04-01T17:04:45.077Z,5.55
2023-04-01T17:07:58.796Z,5.18
2023-04-01T17:11:12.330Z,6.15
2023-04-01T17:14:45.357Z,5.72
2023-04-01T17:17:58.204Z,3.30
2023-04-01T17:21:08.672Z,3.30
2023-04-01T17:24:33.017Z,6.65
2023-04-01T17:27:57.104Z,4.63
2023-04-01T17:31:34.261Z,7.80
2023-04-01T17:35:01.303Z,7.93
2023-04-01T17:38:54.806Z,7.65
2023-04-01T17:42:58.371Z,6.97
2023-04-01T17:46:13.506Z,4.80
2023-04-01T17:49:40.351Z,15.00
2023-04-01T17:53:03.296Z,14.52
2023-04-01T17:56:45.838Z,21.85
2023-04-01T18:00:05.463Z,28.48
2023-04-01T18:03:53.966Z,19.00
2023-04-01T18:07:23.844Z,20.60
2023-04-01T18:11:06.205Z,15.43
2023-04-01T18:14:36.220Z,23.50
2023-04-01T18:18:12.431Z,20.35
2023-04-01T18:21:35.904Z,10.45
2023-04-01T18:24:56.453Z,8.07
2023-04-01T18:28:17.904Z,8.60
2023-04-01T18:31:34.423Z,9.13
2023-04-01T18:34:42.968Z,8.90
